メインページ
METAR-TAF:

METAR-TAF

空港 :

チュニス, チュニジア

チュニス・カルタゴ国際空港

緯度: 36-50N, 経度: 010-14E, 海抜: 3m

現時点の気象観測

当レポートは17分前の01:30(UTC)に作成
西/北西の風 12kt
気温 13°C
湿度 58%
気圧 1023 hPa
視程10km以上
高度2600ftの雲はほとんどない

METAR: DTTA 180130Z 29012KT 9999 FEW026 13/05 Q1023 NOSIG

時間: 02:47 (01:47 UTC)

予報

当レポートは2時間47分前の23:00(UTC)に作成
予報は18日の 00時(UTC)から 18日の 24時(UTC)まで有効
北西の風 15kt
視程10km以上
高度1600ftの雲は散在している
18日の 17時(UTC)から 18日の 19時(UTC)まで徐々に
南/南東の風 10kt

TAF: DTTA 172300Z 1800/1824 32015KT 9999 SCT016 BECMG 1817/1819 15010KT

4,000以上の空港の気象観測と天気予報(METAR報とTAF報)

利用可能な観測所は地図上に黄色い丸と赤い丸で示す。

丸の上にカーソルを重ねると観測所名を参照できる。

次にクリックすると気象観測と天気予報を参照できる。

マップの切り替え:黒色「×」印の緑ボタンをクリックして拡大、「-」印の緑ボタンをクリックして縮小、緑色の三角印をクリックして隣りの地図に切り替え


METAR-TAF: